sensor_id;sensor_type;location;lat;lon;timestamp;temperature;humidity
32753;DHT22;19121;52.428;10.816;2022-07-11T00:01:39;24.20;46.50
32753;DHT22;19121;52.428;10.816;2022-07-11T00:04:04;24.10;47.00
32753;DHT22;19121;52.428;10.816;2022-07-11T00:06:30;24.10;46.40
32753;DHT22;19121;52.428;10.816;2022-07-11T00:08:55;24.10;46.40
32753;DHT22;19121;52.428;10.816;2022-07-11T00:11:21;24.10;46.40
32753;DHT22;19121;52.428;10.816;2022-07-11T00:13:46;24.10;46.40
32753;DHT22;19121;52.428;10.816;2022-07-11T00:16:12;24.10;46.40
32753;DHT22;19121;52.428;10.816;2022-07-11T00:18:38;24.10;46.40
32753;DHT22;19121;52.428;10.816;2022-07-11T00:21:04;24.10;46.40
32753;DHT22;19121;52.428;10.816;2022-07-11T00:23:29;24.10;46.40
32753;DHT22;19121;52.428;10.816;2022-07-11T00:25:55;24.10;46.40
32753;DHT22;19121;52.428;10.816;2022-07-11T00:28:20;24.10;46.40
32753;DHT22;19121;52.428;10.816;2022-07-11T00:30:46;24.10;46.50
32753;DHT22;19121;52.428;10.816;2022-07-11T00:33:11;24.10;46.40
32753;DHT22;19121;52.428;10.816;2022-07-11T00:35:37;24.10;46.40
32753;DHT22;19121;52.428;10.816;2022-07-11T00:38:02;24.10;46.40
32753;DHT22;19121;52.428;10.816;2022-07-11T00:40:28;24.10;46.40
32753;DHT22;19121;52.428;10.816;2022-07-11T00:42:53;24.10;46.40
32753;DHT22;19121;52.428;10.816;2022-07-11T00:45:19;24.00;46.40
32753;DHT22;19121;52.428;10.816;2022-07-11T00:47:44;24.10;46.40
32753;DHT22;19121;52.428;10.816;2022-07-11T00:50:10;24.00;46.40
32753;DHT22;19121;52.428;10.816;2022-07-11T00:52:36;24.00;46.40
32753;DHT22;19121;52.428;10.816;2022-07-11T00:55:03;24.00;46.40
32753;DHT22;19121;52.428;10.816;2022-07-11T00:57:30;24.00;46.40
32753;DHT22;19121;52.428;10.816;2022-07-11T00:59:56;24.00;46.40
32753;DHT22;19121;52.428;10.816;2022-07-11T01:02:22;24.00;46.40
32753;DHT22;19121;52.428;10.816;2022-07-11T01:04:47;24.00;46.40
32753;DHT22;19121;52.428;10.816;2022-07-11T01:07:13;24.00;46.40
32753;DHT22;19121;52.428;10.816;2022-07-11T01:09:39;24.00;46.40
32753;DHT22;19121;52.428;10.816;2022-07-11T01:12:05;24.00;46.40
32753;DHT22;19121;52.428;10.816;2022-07-11T01:14:31;24.00;46.40
32753;DHT22;19121;52.428;10.816;2022-07-11T01:16:56;24.00;46.50
32753;DHT22;19121;52.428;10.816;2022-07-11T01:19:22;24.00;46.40
32753;DHT22;19121;52.428;10.816;2022-07-11T01:21:49;24.00;46.40
32753;DHT22;19121;52.428;10.816;2022-07-11T01:24:15;24.00;46.40
32753;DHT22;19121;52.428;10.816;2022-07-11T01:26:42;24.00;46.40
32753;DHT22;19121;52.428;10.816;2022-07-11T01:29:10;24.00;46.40
32753;DHT22;19121;52.428;10.816;2022-07-11T01:31:40;23.90;46.40
32753;DHT22;19121;52.428;10.816;2022-07-11T01:34:06;24.00;46.40
32753;DHT22;19121;52.428;10.816;2022-07-11T01:36:32;23.90;46.30
32753;DHT22;19121;52.428;10.816;2022-07-11T01:38:57;23.90;46.40
32753;DHT22;19121;52.428;10.816;2022-07-11T01:41:23;23.90;46.40
32753;DHT22;19121;52.428;10.816;2022-07-11T01:43:49;23.90;46.40
32753;DHT22;19121;52.428;10.816;2022-07-11T01:46:15;23.90;46.40
32753;DHT22;19121;52.428;10.816;2022-07-11T01:48:42;23.90;46.40
32753;DHT22;19121;52.428;10.816;2022-07-11T01:51:07;23.90;46.40
32753;DHT22;19121;52.428;10.816;2022-07-11T01:53:33;23.90;46.40
32753;DHT22;19121;52.428;10.816;2022-07-11T01:55:58;23.90;46.40
32753;DHT22;19121;52.428;10.816;2022-07-11T01:58:24;23.90;46.40
32753;DHT22;19121;52.428;10.816;2022-07-11T02:00:49;23.90;46.40
32753;DHT22;19121;52.428;10.816;2022-07-11T02:03:14;23.90;46.40
32753;DHT22;19121;52.428;10.816;2022-07-11T02:05:40;23.90;46.40
32753;DHT22;19121;52.428;10.816;2022-07-11T02:08:07;23.90;46.40
32753;DHT22;19121;52.428;10.816;2022-07-11T02:10:40;23.90;46.40
32753;DHT22;19121;52.428;10.816;2022-07-11T02:13:07;23.80;46.30
32753;DHT22;19121;52.428;10.816;2022-07-11T02:15:34;23.90;46.40
32753;DHT22;19121;52.428;10.816;2022-07-11T02:18:00;23.80;46.40
32753;DHT22;19121;52.428;10.816;2022-07-11T02:20:25;23.80;46.30
32753;DHT22;19121;52.428;10.816;2022-07-11T02:22:51;23.90;46.40
32753;DHT22;19121;52.428;10.816;2022-07-11T02:25:18;23.80;46.30
32753;DHT22;19121;52.428;10.816;2022-07-11T02:27:43;23.80;46.30
32753;DHT22;19121;52.428;10.816;2022-07-11T02:30:10;23.80;46.40
32753;DHT22;19121;52.428;10.816;2022-07-11T02:32:37;23.80;46.30
32753;DHT22;19121;52.428;10.816;2022-07-11T02:35:03;23.80;46.40
32753;DHT22;19121;52.428;10.816;2022-07-11T02:37:28;23.80;46.30
32753;DHT22;19121;52.428;10.816;2022-07-11T02:39:54;23.80;46.30
32753;DHT22;19121;52.428;10.816;2022-07-11T02:42:19;23.80;46.30
32753;DHT22;19121;52.428;10.816;2022-07-11T02:44:46;23.80;46.40
32753;DHT22;19121;52.428;10.816;2022-07-11T02:47:12;23.80;46.30
32753;DHT22;19121;52.428;10.816;2022-07-11T02:49:39;23.80;46.40
32753;DHT22;19121;52.428;10.816;2022-07-11T02:52:05;23.80;46.30
32753;DHT22;19121;52.428;10.816;2022-07-11T02:54:31;23.80;46.30
32753;DHT22;19121;52.428;10.816;2022-07-11T02:56:56;23.80;46.30
32753;DHT22;19121;52.428;10.816;2022-07-11T02:59:22;23.80;46.30
32753;DHT22;19121;52.428;10.816;2022-07-11T03:01:48;23.80;46.30
32753;DHT22;19121;52.428;10.816;2022-07-11T03:04:14;23.80;46.30
32753;DHT22;19121;52.428;10.816;2022-07-11T03:06:40;23.80;46.30
32753;DHT22;19121;52.428;10.816;2022-07-11T03:09:07;23.80;46.30
32753;DHT22;19121;52.428;10.816;2022-07-11T03:11:33;23.80;46.30
32753;DHT22;19121;52.428;10.816;2022-07-11T03:13:59;23.80;46.30
32753;DHT22;19121;52.428;10.816;2022-07-11T03:16:26;23.80;46.30
32753;DHT22;19121;52.428;10.816;2022-07-11T03:18:52;23.80;46.30
32753;DHT22;19121;52.428;10.816;2022-07-11T03:21:17;23.80;46.30
32753;DHT22;19121;52.428;10.816;2022-07-11T03:23:43;23.70;46.30
32753;DHT22;19121;52.428;10.816;2022-07-11T03:26:08;23.70;46.30
32753;DHT22;19121;52.428;10.816;2022-07-11T03:28:33;23.80;46.40
32753;DHT22;19121;52.428;10.816;2022-07-11T03:30:59;23.70;46.30
32753;DHT22;19121;52.428;10.816;2022-07-11T03:33:24;23.70;46.30
32753;DHT22;19121;52.428;10.816;2022-07-11T03:35:50;23.70;46.30
32753;DHT22;19121;52.428;10.816;2022-07-11T03:38:18;23.70;46.30
32753;DHT22;19121;52.428;10.816;2022-07-11T03:40:47;23.70;46.40
32753;DHT22;19121;52.428;10.816;2022-07-11T03:43:14;23.70;46.30
32753;DHT22;19121;52.428;10.816;2022-07-11T03:45:39;23.70;46.30
32753;DHT22;19121;52.428;10.816;2022-07-11T03:48:06;23.70;46.30
32753;DHT22;19121;52.428;10.816;2022-07-11T03:50:32;23.70;46.30
32753;DHT22;19121;52.428;10.816;2022-07-11T03:52:57;23.70;46.30
32753;DHT22;19121;52.428;10.816;2022-07-11T03:55:24;23.70;46.30
32753;DHT22;19121;52.428;10.816;2022-07-11T03:57:49;23.70;46.30
32753;DHT22;19121;52.428;10.816;2022-07-11T04:00:15;23.70;46.40
32753;DHT22;19121;52.428;10.816;2022-07-11T04:02:41;23.70;46.40
32753;DHT22;19121;52.428;10.816;2022-07-11T04:05:07;23.70;46.40
32753;DHT22;19121;52.428;10.816;2022-07-11T04:07:33;23.70;46.40
32753;DHT22;19121;52.428;10.816;2022-07-11T04:09:59;23.70;46.90
32753;DHT22;19121;52.428;10.816;2022-07-11T04:12:24;23.70;46.40
32753;DHT22;19121;52.428;10.816;2022-07-11T04:14:50;23.70;46.40
32753;DHT22;19121;52.428;10.816;2022-07-11T04:17:15;23.70;46.40
32753;DHT22;19121;52.428;10.816;2022-07-11T04:19:41;23.70;46.40
32753;DHT22;19121;52.428;10.816;2022-07-11T04:22:09;23.70;46.40
32753;DHT22;19121;52.428;10.816;2022-07-11T04:24:35;23.70;46.40
32753;DHT22;19121;52.428;10.816;2022-07-11T04:27:00;23.70;46.40
32753;DHT22;19121;52.428;10.816;2022-07-11T04:29:26;23.70;46.50
32753;DHT22;19121;52.428;10.816;2022-07-11T04:31:52;23.70;46.50
32753;DHT22;19121;52.428;10.816;2022-07-11T04:34:17;23.70;46.50
32753;DHT22;19121;52.428;10.816;2022-07-11T04:36:44;23.70;46.40
32753;DHT22;19121;52.428;10.816;2022-07-11T04:39:09;23.70;46.40
32753;DHT22;19121;52.428;10.816;2022-07-11T04:41:35;23.70;46.40
32753;DHT22;19121;52.428;10.816;2022-07-11T04:44:00;23.60;46.40
32753;DHT22;19121;52.428;10.816;2022-07-11T04:46:26;23.60;46.40
32753;DHT22;19121;52.428;10.816;2022-07-11T04:48:51;23.60;46.50
32753;DHT22;19121;52.428;10.816;2022-07-11T04:51:17;23.70;46.50
32753;DHT22;19121;52.428;10.816;2022-07-11T04:53:42;23.60;46.50
32753;DHT22;19121;52.428;10.816;2022-07-11T04:56:08;23.70;46.50
32753;DHT22;19121;52.428;10.816;2022-07-11T04:58:34;23.70;46.60
32753;DHT22;19121;52.428;10.816;2022-07-11T05:01:00;23.70;46.50
32753;DHT22;19121;52.428;10.816;2022-07-11T05:03:26;23.70;46.60
32753;DHT22;19121;52.428;10.816;2022-07-11T05:05:52;23.70;46.60
32753;DHT22;19121;52.428;10.816;2022-07-11T05:08:17;23.70;46.60
32753;DHT22;19121;52.428;10.816;2022-07-11T05:10:43;23.70;46.50
32753;DHT22;19121;52.428;10.816;2022-07-11T05:13:08;23.60;46.50
32753;DHT22;19121;52.428;10.816;2022-07-11T05:15:34;23.70;46.50
32753;DHT22;19121;52.428;10.816;2022-07-11T05:17:59;23.70;46.60
32753;DHT22;19121;52.428;10.816;2022-07-11T05:20:24;23.70;46.50
32753;DHT22;19121;52.428;10.816;2022-07-11T05:22:50;23.70;46.60
32753;DHT22;19121;52.428;10.816;2022-07-11T05:25:16;23.70;46.60
32753;DHT22;19121;52.428;10.816;2022-07-11T05:27:41;23.80;46.70
32753;DHT22;19121;52.428;10.816;2022-07-11T05:30:07;23.80;46.60
32753;DHT22;19121;52.428;10.816;2022-07-11T05:32:33;23.80;47.30
32753;DHT22;19121;52.428;10.816;2022-07-11T05:34:59;23.60;48.00
32753;DHT22;19121;52.428;10.816;2022-07-11T05:37:27;23.50;48.50
32753;DHT22;19121;52.428;10.816;2022-07-11T05:39:53;23.40;48.80
32753;DHT22;19121;52.428;10.816;2022-07-11T05:42:18;23.30;49.00
32753;DHT22;19121;52.428;10.816;2022-07-11T05:44:43;23.30;49.30
32753;DHT22;19121;52.428;10.816;2022-07-11T05:47:09;23.20;49.10
32753;DHT22;19121;52.428;10.816;2022-07-11T05:49:34;23.10;49.30
32753;DHT22;19121;52.428;10.816;2022-07-11T05:52:00;23.00;49.50
32753;DHT22;19121;52.428;10.816;2022-07-11T05:54:27;22.90;49.90
32753;DHT22;19121;52.428;10.816;2022-07-11T05:56:53;22.80;49.90
32753;DHT22;19121;52.428;10.816;2022-07-11T05:59:19;22.90;49.70
32753;DHT22;19121;52.428;10.816;2022-07-11T06:01:44;23.00;49.40
32753;DHT22;19121;52.428;10.816;2022-07-11T06:04:10;23.10;49.20
32753;DHT22;19121;52.428;10.816;2022-07-11T06:06:35;23.20;49.00
32753;DHT22;19121;52.428;10.816;2022-07-11T06:09:01;23.40;48.80
32753;DHT22;19121;52.428;10.816;2022-07-11T06:11:26;23.60;48.30
32753;DHT22;19121;52.428;10.816;2022-07-11T06:13:52;23.70;47.80
32753;DHT22;19121;52.428;10.816;2022-07-11T06:16:17;23.80;47.60
32753;DHT22;19121;52.428;10.816;2022-07-11T06:18:43;23.80;47.40
32753;DHT22;19121;52.428;10.816;2022-07-11T06:21:09;23.90;47.20
32753;DHT22;19121;52.428;10.816;2022-07-11T06:23:34;23.90;47.10
32753;DHT22;19121;52.428;10.816;2022-07-11T06:26:00;23.90;47.00
32753;DHT22;19121;52.428;10.816;2022-07-11T06:28:25;23.90;47.10
32753;DHT22;19121;52.428;10.816;2022-07-11T06:30:51;23.90;47.10
32753;DHT22;19121;52.428;10.816;2022-07-11T06:33:18;23.90;47.00
32753;DHT22;19121;52.428;10.816;2022-07-11T06:35:44;24.00;47.00
32753;DHT22;19121;52.428;10.816;2022-07-11T06:38:10;24.00;47.10
32753;DHT22;19121;52.428;10.816;2022-07-11T06:40:35;24.00;47.10
32753;DHT22;19121;52.428;10.816;2022-07-11T06:43:01;24.00;47.00
32753;DHT22;19121;52.428;10.816;2022-07-11T06:45:27;24.00;47.00
32753;DHT22;19121;52.428;10.816;2022-07-11T06:47:52;24.10;47.10
32753;DHT22;19121;52.428;10.816;2022-07-11T06:50:18;24.10;47.10
32753;DHT22;19121;52.428;10.816;2022-07-11T06:52:44;24.10;47.20
32753;DHT22;19121;52.428;10.816;2022-07-11T06:55:11;24.20;47.20
32753;DHT22;19121;52.428;10.816;2022-07-11T06:57:37;24.20;47.10
32753;DHT22;19121;52.428;10.816;2022-07-11T07:00:03;24.20;47.10
32753;DHT22;19121;52.428;10.816;2022-07-11T07:02:29;24.30;46.90
32753;DHT22;19121;52.428;10.816;2022-07-11T07:04:59;24.30;46.70
32753;DHT22;19121;52.428;10.816;2022-07-11T07:07:25;24.40;46.70
32753;DHT22;19121;52.428;10.816;2022-07-11T07:09:51;24.40;46.60
32753;DHT22;19121;52.428;10.816;2022-07-11T07:12:17;24.40;46.50
32753;DHT22;19121;52.428;10.816;2022-07-11T07:14:42;24.30;46.40
32753;DHT22;19121;52.428;10.816;2022-07-11T07:17:07;24.30;46.40
32753;DHT22;19121;52.428;10.816;2022-07-11T07:19:33;24.20;46.50
32753;DHT22;19121;52.428;10.816;2022-07-11T07:21:59;24.20;46.20
32753;DHT22;19121;52.428;10.816;2022-07-11T07:24:24;24.20;46.20
32753;DHT22;19121;52.428;10.816;2022-07-11T07:26:50;24.20;46.20
32753;DHT22;19121;52.428;10.816;2022-07-11T07:29:15;24.20;46.10
32753;DHT22;19121;52.428;10.816;2022-07-11T07:31:41;24.20;46.00
32753;DHT22;19121;52.428;10.816;2022-07-11T07:34:06;24.20;45.80
32753;DHT22;19121;52.428;10.816;2022-07-11T07:36:33;24.20;45.60
32753;DHT22;19121;52.428;10.816;2022-07-11T07:38:59;24.20;45.60
32753;DHT22;19121;52.428;10.816;2022-07-11T07:41:25;24.20;45.50
32753;DHT22;19121;52.428;10.816;2022-07-11T07:43:50;24.30;46.10
32753;DHT22;19121;52.428;10.816;2022-07-11T07:46:17;24.30;45.40
32753;DHT22;19121;52.428;10.816;2022-07-11T07:48:42;24.30;45.20
32753;DHT22;19121;52.428;10.816;2022-07-11T07:51:08;24.40;45.20
32753;DHT22;19121;52.428;10.816;2022-07-11T07:53:34;24.40;45.20
32753;DHT22;19121;52.428;10.816;2022-07-11T07:55:59;24.40;45.10
32753;DHT22;19121;52.428;10.816;2022-07-11T07:58:25;24.50;45.00
32753;DHT22;19121;52.428;10.816;2022-07-11T08:00:51;24.50;45.00
32753;DHT22;19121;52.428;10.816;2022-07-11T08:03:35;24.40;44.80
32753;DHT22;19121;52.428;10.816;2022-07-11T08:06:01;24.40;44.70
32753;DHT22;19121;52.428;10.816;2022-07-11T08:08:26;24.30;44.60
32753;DHT22;19121;52.428;10.816;2022-07-11T08:10:51;24.30;44.50
32753;DHT22;19121;52.428;10.816;2022-07-11T08:13:18;24.30;44.60
32753;DHT22;19121;52.428;10.816;2022-07-11T08:15:43;24.20;44.50
32753;DHT22;19121;52.428;10.816;2022-07-11T08:18:09;24.20;45.30
32753;DHT22;19121;52.428;10.816;2022-07-11T08:20:34;24.20;44.70
32753;DHT22;19121;52.428;10.816;2022-07-11T08:23:01;24.10;44.70
32753;DHT22;19121;52.428;10.816;2022-07-11T08:25:28;24.10;44.90
32753;DHT22;19121;52.428;10.816;2022-07-11T08:27:53;24.00;45.00
32753;DHT22;19121;52.428;10.816;2022-07-11T08:30:19;24.10;45.00
32753;DHT22;19121;52.428;10.816;2022-07-11T08:32:44;24.10;45.10
32753;DHT22;19121;52.428;10.816;2022-07-11T08:35:10;24.10;45.00
32753;DHT22;19121;52.428;10.816;2022-07-11T08:37:36;24.10;45.10
32753;DHT22;19121;52.428;10.816;2022-07-11T08:40:02;24.20;45.10
32753;DHT22;19121;52.428;10.816;2022-07-11T08:42:29;24.20;44.90
32753;DHT22;19121;52.428;10.816;2022-07-11T08:44:56;24.30;44.90
32753;DHT22;19121;52.428;10.816;2022-07-11T08:47:23;24.30;44.90
32753;DHT22;19121;52.428;10.816;2022-07-11T08:49:49;24.30;44.80
32753;DHT22;19121;52.428;10.816;2022-07-11T08:52:15;24.30;44.70
32753;DHT22;19121;52.428;10.816;2022-07-11T08:54:41;24.30;44.80
32753;DHT22;19121;52.428;10.816;2022-07-11T08:57:07;24.20;44.60
32753;DHT22;19121;52.428;10.816;2022-07-11T08:59:34;24.20;44.70
32753;DHT22;19121;52.428;10.816;2022-07-11T09:02:02;24.20;44.60
32753;DHT22;19121;52.428;10.816;2022-07-11T09:04:28;24.20;44.60
32753;DHT22;19121;52.428;10.816;2022-07-11T09:06:55;24.20;44.60
32753;DHT22;19121;52.428;10.816;2022-07-11T09:09:21;24.20;44.40
32753;DHT22;19121;52.428;10.816;2022-07-11T09:11:54;24.20;44.40
32753;DHT22;19121;52.428;10.816;2022-07-11T09:14:21;24.20;45.00
32753;DHT22;19121;52.428;10.816;2022-07-11T09:16:52;24.20;44.50
32753;DHT22;19121;52.428;10.816;2022-07-11T09:19:22;24.20;45.10
32753;DHT22;19121;52.428;10.816;2022-07-11T09:22:06;24.30;45.20
32753;DHT22;19121;52.428;10.816;2022-07-11T09:24:58;24.30;45.60
32753;DHT22;19121;52.428;10.816;2022-07-11T09:27:44;24.30;45.20
32753;DHT22;19121;52.428;10.816;2022-07-11T09:30:24;24.30;45.00
32753;DHT22;19121;52.428;10.816;2022-07-11T09:32:54;24.40;44.90
32753;DHT22;19121;52.428;10.816;2022-07-11T09:35:22;24.30;44.90
32753;DHT22;19121;52.428;10.816;2022-07-11T09:37:48;24.40;45.10
32753;DHT22;19121;52.428;10.816;2022-07-11T09:40:14;24.40;45.20
32753;DHT22;19121;52.428;10.816;2022-07-11T09:42:51;24.50;45.30
32753;DHT22;19121;52.428;10.816;2022-07-11T09:45:18;24.50;45.70
32753;DHT22;19121;52.428;10.816;2022-07-11T09:47:49;24.50;43.40
32753;DHT22;19121;52.428;10.816;2022-07-11T09:50:22;24.40;43.60
32753;DHT22;19121;52.428;10.816;2022-07-11T09:53:11;24.40;43.80
32753;DHT22;19121;52.428;10.816;2022-07-11T09:55:39;24.40;44.90
32753;DHT22;19121;52.428;10.816;2022-07-11T09:58:10;24.40;44.30
32753;DHT22;19121;52.428;10.816;2022-07-11T10:00:37;24.50;44.80
32753;DHT22;19121;52.428;10.816;2022-07-11T10:03:08;24.50;44.10
32753;DHT22;19121;52.428;10.816;2022-07-11T10:05:34;24.50;43.60
32753;DHT22;19121;52.428;10.816;2022-07-11T10:08:00;24.40;43.60
32753;DHT22;19121;52.428;10.816;2022-07-11T10:10:27;24.40;43.90
32753;DHT22;19121;52.428;10.816;2022-07-11T10:12:54;24.40;43.60
32753;DHT22;19121;52.428;10.816;2022-07-11T10:15:22;24.30;43.10
32753;DHT22;19121;52.428;10.816;2022-07-11T10:18:25;24.20;43.80
32753;DHT22;19121;52.428;10.816;2022-07-11T10:20:59;24.30;43.80
32753;DHT22;19121;52.428;10.816;2022-07-11T10:26:28;24.30;43.80
32753;DHT22;19121;52.428;10.816;2022-07-11T10:29:01;24.40;43.60
32753;DHT22;19121;52.428;10.816;2022-07-11T10:31:29;24.30;42.90
32753;DHT22;19121;52.428;10.816;2022-07-11T10:36:26;24.30;44.30
32753;DHT22;19121;52.428;10.816;2022-07-11T10:39:19;24.30;44.30
32753;DHT22;19121;52.428;10.816;2022-07-11T10:41:47;24.40;43.80
32753;DHT22;19121;52.428;10.816;2022-07-11T10:44:12;24.40;43.60
32753;DHT22;19121;52.428;10.816;2022-07-11T10:46:38;24.20;43.30
32753;DHT22;19121;52.428;10.816;2022-07-11T10:49:17;24.20;43.60
32753;DHT22;19121;52.428;10.816;2022-07-11T10:52:02;24.10;43.70
32753;DHT22;19121;52.428;10.816;2022-07-11T10:54:56;24.10;44.40
32753;DHT22;19121;52.428;10.816;2022-07-11T11:00:11;24.20;44.40
32753;DHT22;19121;52.428;10.816;2022-07-11T11:03:03;24.20;44.00
32753;DHT22;19121;52.428;10.816;2022-07-11T11:05:47;24.30;44.40
32753;DHT22;19121;52.428;10.816;2022-07-11T11:10:58;24.40;44.50
32753;DHT22;19121;52.428;10.816;2022-07-11T11:13:25;24.40;43.50
32753;DHT22;19121;52.428;10.816;2022-07-11T11:16:00;24.50;44.00
32753;DHT22;19121;52.428;10.816;2022-07-11T11:23:40;24.50;42.30
32753;DHT22;19121;52.428;10.816;2022-07-11T11:26:17;24.50;42.50
32753;DHT22;19121;52.428;10.816;2022-07-11T11:29:00;24.40;42.40
32753;DHT22;19121;52.428;10.816;2022-07-11T11:31:27;24.40;42.20
32753;DHT22;19121;52.428;10.816;2022-07-11T11:33:55;24.50;43.70
32753;DHT22;19121;52.428;10.816;2022-07-11T11:36:22;24.50;43.80
32753;DHT22;19121;52.428;10.816;2022-07-11T11:38:49;24.50;43.60
32753;DHT22;19121;52.428;10.816;2022-07-11T11:41:24;24.50;43.70
32753;DHT22;19121;52.428;10.816;2022-07-11T11:43:51;24.50;42.40
32753;DHT22;19121;52.428;10.816;2022-07-11T11:46:17;24.50;42.20
32753;DHT22;19121;52.428;10.816;2022-07-11T11:48:43;24.40;42.40
32753;DHT22;19121;52.428;10.816;2022-07-11T11:51:15;24.40;42.40
32753;DHT22;19121;52.428;10.816;2022-07-11T11:53:46;24.40;42.10
32753;DHT22;19121;52.428;10.816;2022-07-11T11:56:20;24.40;42.00
32753;DHT22;19121;52.428;10.816;2022-07-11T11:59:09;24.40;42.60
32753;DHT22;19121;52.428;10.816;2022-07-11T12:01:40;24.40;42.90
32753;DHT22;19121;52.428;10.816;2022-07-11T12:04:07;24.40;42.40
32753;DHT22;19121;52.428;10.816;2022-07-11T12:06:35;24.40;42.70
32753;DHT22;19121;52.428;10.816;2022-07-11T12:09:09;24.20;42.90
32753;DHT22;19121;52.428;10.816;2022-07-11T12:11:35;24.20;42.80
32753;DHT22;19121;52.428;10.816;2022-07-11T12:14:06;24.20;42.70
32753;DHT22;19121;52.428;10.816;2022-07-11T12:16:34;24.20;42.50
32753;DHT22;19121;52.428;10.816;2022-07-11T12:19:15;24.20;43.30
32753;DHT22;19121;52.428;10.816;2022-07-11T12:21:52;24.20;43.00
32753;DHT22;19121;52.428;10.816;2022-07-11T12:24:23;24.20;43.20
32753;DHT22;19121;52.428;10.816;2022-07-11T12:26:49;24.20;42.90
32753;DHT22;19121;52.428;10.816;2022-07-11T12:29:19;24.30;43.50
32753;DHT22;19121;52.428;10.816;2022-07-11T12:34:17;24.20;43.00
32753;DHT22;19121;52.428;10.816;2022-07-11T12:36:43;24.20;42.80
32753;DHT22;19121;52.428;10.816;2022-07-11T12:39:21;24.10;42.70
32753;DHT22;19121;52.428;10.816;2022-07-11T12:41:46;24.20;42.30
32753;DHT22;19121;52.428;10.816;2022-07-11T12:44:27;24.20;43.20
32753;DHT22;19121;52.428;10.816;2022-07-11T12:47:11;24.20;43.30
32753;DHT22;19121;52.428;10.816;2022-07-11T12:49:37;24.20;43.30
32753;DHT22;19121;52.428;10.816;2022-07-11T12:52:05;24.20;43.60
32753;DHT22;19121;52.428;10.816;2022-07-11T12:54:32;24.30;44.00
32753;DHT22;19121;52.428;10.816;2022-07-11T12:57:00;24.40;43.80
32753;DHT22;19121;52.428;10.816;2022-07-11T12:59:30;24.30;43.90
32753;DHT22;19121;52.428;10.816;2022-07-11T13:02:03;24.40;44.20
32753;DHT22;19121;52.428;10.816;2022-07-11T13:07:28;24.40;43.60
32753;DHT22;19121;52.428;10.816;2022-07-11T13:10:23;24.30;43.80
32753;DHT22;19121;52.428;10.816;2022-07-11T13:12:51;24.40;44.10
32753;DHT22;19121;52.428;10.816;2022-07-11T13:15:17;24.40;44.10
32753;DHT22;19121;52.428;10.816;2022-07-11T13:17:48;24.40;44.00
32753;DHT22;19121;52.428;10.816;2022-07-11T13:20:17;24.40;44.50
32753;DHT22;19121;52.428;10.816;2022-07-11T13:22:44;24.40;44.60
32753;DHT22;19121;52.428;10.816;2022-07-11T13:25:11;24.40;44.50
32753;DHT22;19121;52.428;10.816;2022-07-11T13:27:38;24.30;44.40
32753;DHT22;19121;52.428;10.816;2022-07-11T13:30:05;24.30;44.70
32753;DHT22;19121;52.428;10.816;2022-07-11T13:32:37;24.40;44.50
32753;DHT22;19121;52.428;10.816;2022-07-11T13:35:03;24.40;44.50
32753;DHT22;19121;52.428;10.816;2022-07-11T13:37:29;24.40;44.70
32753;DHT22;19121;52.428;10.816;2022-07-11T13:39:54;24.40;44.70
32753;DHT22;19121;52.428;10.816;2022-07-11T13:42:20;24.50;45.00
32753;DHT22;19121;52.428;10.816;2022-07-11T13:44:45;24.60;45.10
32753;DHT22;19121;52.428;10.816;2022-07-11T13:47:11;24.60;45.00
32753;DHT22;19121;52.428;10.816;2022-07-11T13:49:39;24.70;43.80
32753;DHT22;19121;52.428;10.816;2022-07-11T13:52:04;24.70;44.90
32753;DHT22;19121;52.428;10.816;2022-07-11T13:54:30;24.70;44.00
32753;DHT22;19121;52.428;10.816;2022-07-11T13:56:55;24.70;43.20
32753;DHT22;19121;52.428;10.816;2022-07-11T13:59:21;24.60;43.20
32753;DHT22;19121;52.428;10.816;2022-07-11T14:01:46;24.60;43.80
32753;DHT22;19121;52.428;10.816;2022-07-11T14:04:12;24.60;43.20
32753;DHT22;19121;52.428;10.816;2022-07-11T14:06:37;24.50;43.10
32753;DHT22;19121;52.428;10.816;2022-07-11T14:09:03;24.50;44.10
32753;DHT22;19121;52.428;10.816;2022-07-11T14:11:29;24.50;44.20
32753;DHT22;19121;52.428;10.816;2022-07-11T14:13:54;24.50;44.50
32753;DHT22;19121;52.428;10.816;2022-07-11T14:16:21;24.40;44.70
32753;DHT22;19121;52.428;10.816;2022-07-11T14:18:47;24.40;44.70
32753;DHT22;19121;52.428;10.816;2022-07-11T14:21:12;24.40;44.60
32753;DHT22;19121;52.428;10.816;2022-07-11T14:23:38;24.40;44.70
32753;DHT22;19121;52.428;10.816;2022-07-11T14:26:03;24.40;45.00
32753;DHT22;19121;52.428;10.816;2022-07-11T14:28:32;24.50;44.70
32753;DHT22;19121;52.428;10.816;2022-07-11T14:30:58;24.40;45.10
32753;DHT22;19121;52.428;10.816;2022-07-11T14:33:24;24.40;44.50
32753;DHT22;19121;52.428;10.816;2022-07-11T14:35:50;24.50;45.10
32753;DHT22;19121;52.428;10.816;2022-07-11T14:38:15;24.50;45.20
32753;DHT22;19121;52.428;10.816;2022-07-11T14:40:41;24.50;44.90
32753;DHT22;19121;52.428;10.816;2022-07-11T14:43:06;24.50;44.90
32753;DHT22;19121;52.428;10.816;2022-07-11T14:45:32;24.60;45.20
32753;DHT22;19121;52.428;10.816;2022-07-11T14:47:57;24.60;45.10
32753;DHT22;19121;52.428;10.816;2022-07-11T14:50:23;24.60;45.00
32753;DHT22;19121;52.428;10.816;2022-07-11T14:52:48;24.60;44.70
32753;DHT22;19121;52.428;10.816;2022-07-11T14:55:14;24.60;44.50
32753;DHT22;19121;52.428;10.816;2022-07-11T14:57:39;24.60;44.70
32753;DHT22;19121;52.428;10.816;2022-07-11T15:00:06;24.60;44.90
32753;DHT22;19121;52.428;10.816;2022-07-11T15:02:32;24.70;45.00
32753;DHT22;19121;52.428;10.816;2022-07-11T15:05:16;24.60;45.10
32753;DHT22;19121;52.428;10.816;2022-07-11T15:07:42;24.60;45.30
32753;DHT22;19121;52.428;10.816;2022-07-11T15:10:26;24.50;45.80
32753;DHT22;19121;52.428;10.816;2022-07-11T15:13:10;24.50;46.40
32753;DHT22;19121;52.428;10.816;2022-07-11T15:15:35;24.50;46.80
32753;DHT22;19121;52.428;10.816;2022-07-11T15:18:01;24.50;47.10
32753;DHT22;19121;52.428;10.816;2022-07-11T15:20:26;24.50;47.30
32753;DHT22;19121;52.428;10.816;2022-07-11T15:22:52;24.50;47.40
32753;DHT22;19121;52.428;10.816;2022-07-11T15:25:18;24.50;47.30
32753;DHT22;19121;52.428;10.816;2022-07-11T15:27:44;24.50;47.00
32753;DHT22;19121;52.428;10.816;2022-07-11T15:30:10;24.50;46.70
32753;DHT22;19121;52.428;10.816;2022-07-11T15:32:39;24.60;46.60
32753;DHT22;19121;52.428;10.816;2022-07-11T15:35:04;24.60;46.40
32753;DHT22;19121;52.428;10.816;2022-07-11T15:37:30;24.70;46.30
32753;DHT22;19121;52.428;10.816;2022-07-11T15:39:55;24.70;46.10